sensor_id;sensor_type;location;lat;lon;timestamp;temperature;humidity
40696;DHT22;40425;51.102;17.208;2023-02-21T00:00:18;10.10;99.90
40696;DHT22;40425;51.102;17.208;2023-02-21T00:05:37;10.10;99.90
40696;DHT22;40425;51.102;17.208;2023-02-21T00:10:57;10.10;99.90
40696;DHT22;40425;51.102;17.208;2023-02-21T00:16:17;10.10;99.90
40696;DHT22;40425;51.102;17.208;2023-02-21T00:21:36;10.10;99.90
40696;DHT22;40425;51.102;17.208;2023-02-21T00:26:55;10.00;99.90
40696;DHT22;40425;51.102;17.208;2023-02-21T00:32:15;10.00;99.90
40696;DHT22;40425;51.102;17.208;2023-02-21T00:37:34;10.10;99.90
40696;DHT22;40425;51.102;17.208;2023-02-21T00:42:54;10.00;99.90
40696;DHT22;40425;51.102;17.208;2023-02-21T00:48:19;10.00;99.90
40696;DHT22;40425;51.102;17.208;2023-02-21T00:53:38;10.00;99.90
40696;DHT22;40425;51.102;17.208;2023-02-21T00:58:57;10.00;99.90
40696;DHT22;40425;51.102;17.208;2023-02-21T01:04:16;10.00;99.90
40696;DHT22;40425;51.102;17.208;2023-02-21T01:09:35;10.00;99.90
40696;DHT22;40425;51.102;17.208;2023-02-21T01:14:56;10.00;99.90
40696;DHT22;40425;51.102;17.208;2023-02-21T01:20:15;10.00;99.90
40696;DHT22;40425;51.102;17.208;2023-02-21T01:25:34;10.00;99.90
40696;DHT22;40425;51.102;17.208;2023-02-21T01:30:53;10.00;99.90
40696;DHT22;40425;51.102;17.208;2023-02-21T01:36:12;9.90;99.90
40696;DHT22;40425;51.102;17.208;2023-02-21T01:41:32;9.90;99.90
40696;DHT22;40425;51.102;17.208;2023-02-21T01:46:51;9.90;99.90
40696;DHT22;40425;51.102;17.208;2023-02-21T01:52:10;9.90;99.90
40696;DHT22;40425;51.102;17.208;2023-02-21T01:57:30;9.90;99.90
40696;DHT22;40425;51.102;17.208;2023-02-21T02:02:56;9.80;99.90
40696;DHT22;40425;51.102;17.208;2023-02-21T02:08:17;9.80;99.90
40696;DHT22;40425;51.102;17.208;2023-02-21T02:18:56;9.70;99.90
40696;DHT22;40425;51.102;17.208;2023-02-21T02:30:09;9.60;99.90
40696;DHT22;40425;51.102;17.208;2023-02-21T02:46:18;9.60;99.90
40696;DHT22;40425;51.102;17.208;2023-02-21T02:51:20;9.50;99.90
40696;DHT22;40425;51.102;17.208;2023-02-21T02:56:22;9.60;99.90
40696;DHT22;40425;51.102;17.208;2023-02-21T03:01:54;9.60;99.90
40696;DHT22;40425;51.102;17.208;2023-02-21T03:07:21;9.50;99.90
40696;DHT22;40425;51.102;17.208;2023-02-21T03:12:36;9.50;99.90
40696;DHT22;40425;51.102;17.208;2023-02-21T03:17:41;9.50;99.90
40696;DHT22;40425;51.102;17.208;2023-02-21T03:22:44;9.50;99.90
40696;DHT22;40425;51.102;17.208;2023-02-21T03:27:46;9.60;99.90
40696;DHT22;40425;51.102;17.208;2023-02-21T03:32:52;9.50;99.90
40696;DHT22;40425;51.102;17.208;2023-02-21T03:37:53;9.50;99.90
40696;DHT22;40425;51.102;17.208;2023-02-21T03:42:55;9.60;99.90
40696;DHT22;40425;51.102;17.208;2023-02-21T03:47:56;9.60;99.90
40696;DHT22;40425;51.102;17.208;2023-02-21T03:52:57;9.60;99.90
40696;DHT22;40425;51.102;17.208;2023-02-21T03:57:58;9.60;99.90
40696;DHT22;40425;51.102;17.208;2023-02-21T04:02:59;9.60;99.90
40696;DHT22;40425;51.102;17.208;2023-02-21T04:08:00;9.60;99.90
40696;DHT22;40425;51.102;17.208;2023-02-21T04:13:01;9.60;99.90
40696;DHT22;40425;51.102;17.208;2023-02-21T04:18:02;9.60;99.90
40696;DHT22;40425;51.102;17.208;2023-02-21T04:23:02;9.60;99.90
40696;DHT22;40425;51.102;17.208;2023-02-21T04:28:03;9.60;99.90
40696;DHT22;40425;51.102;17.208;2023-02-21T04:33:04;9.60;99.90
40696;DHT22;40425;51.102;17.208;2023-02-21T04:38:05;9.60;99.90
40696;DHT22;40425;51.102;17.208;2023-02-21T04:43:06;9.70;99.90
40696;DHT22;40425;51.102;17.208;2023-02-21T04:48:07;9.60;99.90
40696;DHT22;40425;51.102;17.208;2023-02-21T04:53:08;9.70;99.90
40696;DHT22;40425;51.102;17.208;2023-02-21T04:58:09;9.70;99.90
40696;DHT22;40425;51.102;17.208;2023-02-21T05:03:10;9.70;99.90
40696;DHT22;40425;51.102;17.208;2023-02-21T05:08:11;9.70;99.90
40696;DHT22;40425;51.102;17.208;2023-02-21T05:13:13;9.70;99.90
40696;DHT22;40425;51.102;17.208;2023-02-21T05:18:14;9.60;99.90
40696;DHT22;40425;51.102;17.208;2023-02-21T05:23:22;9.50;99.90
40696;DHT22;40425;51.102;17.208;2023-02-21T05:28:36;9.40;99.90
40696;DHT22;40425;51.102;17.208;2023-02-21T05:33:37;9.30;99.90
40696;DHT22;40425;51.102;17.208;2023-02-21T05:38:50;9.30;99.90
40696;DHT22;40425;51.102;17.208;2023-02-21T05:43:51;9.30;99.90
40696;DHT22;40425;51.102;17.208;2023-02-21T05:48:53;9.30;99.90
40696;DHT22;40425;51.102;17.208;2023-02-21T05:53:54;9.30;99.90
40696;DHT22;40425;51.102;17.208;2023-02-21T05:58:55;9.40;99.90
40696;DHT22;40425;51.102;17.208;2023-02-21T06:03:56;9.40;99.90
40696;DHT22;40425;51.102;17.208;2023-02-21T06:08:57;9.40;99.90
40696;DHT22;40425;51.102;17.208;2023-02-21T06:13:59;9.50;99.90
40696;DHT22;40425;51.102;17.208;2023-02-21T06:19:01;9.50;99.90
40696;DHT22;40425;51.102;17.208;2023-02-21T06:24:03;9.60;99.90
40696;DHT22;40425;51.102;17.208;2023-02-21T06:29:04;9.60;99.90
40696;DHT22;40425;51.102;17.208;2023-02-21T06:34:05;9.60;99.90
40696;DHT22;40425;51.102;17.208;2023-02-21T06:39:06;9.60;99.90
40696;DHT22;40425;51.102;17.208;2023-02-21T06:44:07;9.60;99.90
40696;DHT22;40425;51.102;17.208;2023-02-21T06:49:09;9.70;99.90
40696;DHT22;40425;51.102;17.208;2023-02-21T06:54:10;9.70;99.90
40696;DHT22;40425;51.102;17.208;2023-02-21T06:59:12;9.60;99.90
40696;DHT22;40425;51.102;17.208;2023-02-21T07:04:13;9.70;99.90
40696;DHT22;40425;51.102;17.208;2023-02-21T07:09:14;9.70;99.90
40696;DHT22;40425;51.102;17.208;2023-02-21T07:14:15;9.70;99.90
40696;DHT22;40425;51.102;17.208;2023-02-21T07:19:16;9.80;99.90
40696;DHT22;40425;51.102;17.208;2023-02-21T07:24:17;9.80;99.90
40696;DHT22;40425;51.102;17.208;2023-02-21T07:29:18;10.00;99.90
40696;DHT22;40425;51.102;17.208;2023-02-21T07:34:19;10.10;99.90
40696;DHT22;40425;51.102;17.208;2023-02-21T07:39:21;10.20;99.90
40696;DHT22;40425;51.102;17.208;2023-02-21T07:44:22;10.20;99.90
40696;DHT22;40425;51.102;17.208;2023-02-21T07:49:23;10.20;99.90
40696;DHT22;40425;51.102;17.208;2023-02-21T07:54:24;10.00;99.90
40696;DHT22;40425;51.102;17.208;2023-02-21T07:59:25;9.90;99.90
40696;DHT22;40425;51.102;17.208;2023-02-21T08:04:25;9.90;99.90
40696;DHT22;40425;51.102;17.208;2023-02-21T08:09:26;9.90;99.90
40696;DHT22;40425;51.102;17.208;2023-02-21T08:14:27;10.00;99.90
40696;DHT22;40425;51.102;17.208;2023-02-21T08:19:28;10.10;99.90
40696;DHT22;40425;51.102;17.208;2023-02-21T08:24:29;10.10;99.90
40696;DHT22;40425;51.102;17.208;2023-02-21T08:29:30;10.10;99.90
40696;DHT22;40425;51.102;17.208;2023-02-21T08:34:30;10.20;99.90
40696;DHT22;40425;51.102;17.208;2023-02-21T08:39:31;10.50;99.90
40696;DHT22;40425;51.102;17.208;2023-02-21T08:44:32;10.60;99.90
40696;DHT22;40425;51.102;17.208;2023-02-21T08:49:33;10.40;99.90
40696;DHT22;40425;51.102;17.208;2023-02-21T08:54:34;10.20;99.90
40696;DHT22;40425;51.102;17.208;2023-02-21T08:59:38;10.00;99.90
40696;DHT22;40425;51.102;17.208;2023-02-21T09:04:42;10.20;99.90
40696;DHT22;40425;51.102;17.208;2023-02-21T09:09:43;10.70;99.90
40696;DHT22;40425;51.102;17.208;2023-02-21T09:14:44;10.90;99.90
40696;DHT22;40425;51.102;17.208;2023-02-21T09:19:45;10.80;99.90
40696;DHT22;40425;51.102;17.208;2023-02-21T09:24:46;10.50;99.90
40696;DHT22;40425;51.102;17.208;2023-02-21T09:29:47;10.50;99.90
40696;DHT22;40425;51.102;17.208;2023-02-21T09:34:48;10.60;99.90
40696;DHT22;40425;51.102;17.208;2023-02-21T09:39:48;10.80;99.90
40696;DHT22;40425;51.102;17.208;2023-02-21T09:44:50;11.00;99.90
40696;DHT22;40425;51.102;17.208;2023-02-21T09:49:58;11.00;99.90
40696;DHT22;40425;51.102;17.208;2023-02-21T09:55:10;11.20;99.90
40696;DHT22;40425;51.102;17.208;2023-02-21T10:00:17;11.30;99.90
40696;DHT22;40425;51.102;17.208;2023-02-21T10:10:43;11.40;99.90
40696;DHT22;40425;51.102;17.208;2023-02-21T10:21:01;11.30;99.90
40696;DHT22;40425;51.102;17.208;2023-02-21T10:26:10;11.60;99.90
40696;DHT22;40425;51.102;17.208;2023-02-21T10:31:35;11.90;99.90
40696;DHT22;40425;51.102;17.208;2023-02-21T10:36:37;11.80;99.90
40696;DHT22;40425;51.102;17.208;2023-02-21T10:41:39;12.00;99.90
40696;DHT22;40425;51.102;17.208;2023-02-21T10:47:14;12.10;99.90
40696;DHT22;40425;51.102;17.208;2023-02-21T10:52:18;12.00;99.90
40696;DHT22;40425;51.102;17.208;2023-02-21T10:57:22;12.00;99.90
40696;DHT22;40425;51.102;17.208;2023-02-21T11:02:35;12.10;99.90
40696;DHT22;40425;51.102;17.208;2023-02-21T11:07:37;12.00;99.90
40696;DHT22;40425;51.102;17.208;2023-02-21T11:12:38;11.80;99.90
40696;DHT22;40425;51.102;17.208;2023-02-21T11:17:41;11.60;99.90
40696;DHT22;40425;51.102;17.208;2023-02-21T11:22:45;11.30;99.90
40696;DHT22;40425;51.102;17.208;2023-02-21T11:28:02;10.90;99.90
40696;DHT22;40425;51.102;17.208;2023-02-21T11:33:05;10.90;99.90
40696;DHT22;40425;51.102;17.208;2023-02-21T11:38:08;11.20;99.90
40696;DHT22;40425;51.102;17.208;2023-02-21T11:43:25;11.50;99.90
40696;DHT22;40425;51.102;17.208;2023-02-21T11:48:29;11.60;99.90
40696;DHT22;40425;51.102;17.208;2023-02-21T11:53:42;11.70;99.90
40696;DHT22;40425;51.102;17.208;2023-02-21T11:59:14;11.70;99.90
40696;DHT22;40425;51.102;17.208;2023-02-21T12:15:36;11.80;99.90
40696;DHT22;40425;51.102;17.208;2023-02-21T12:21:00;11.70;99.90
40696;DHT22;40425;51.102;17.208;2023-02-21T12:26:31;11.60;99.90
40696;DHT22;40425;51.102;17.208;2023-02-21T12:42:35;11.40;99.90
40696;DHT22;40425;51.102;17.208;2023-02-21T12:48:01;11.40;99.90
40696;DHT22;40425;51.102;17.208;2023-02-21T12:53:18;11.60;99.90
40696;DHT22;40425;51.102;17.208;2023-02-21T12:58:42;11.70;99.90
40696;DHT22;40425;51.102;17.208;2023-02-21T13:14:41;12.10;99.90
40696;DHT22;40425;51.102;17.208;2023-02-21T13:20:00;11.80;99.90
40696;DHT22;40425;51.102;17.208;2023-02-21T13:25:26;11.90;99.90
40696;DHT22;40425;51.102;17.208;2023-02-21T13:35:40;11.80;99.90
40696;DHT22;40425;51.102;17.208;2023-02-21T13:41:02;11.90;99.90
40696;DHT22;40425;51.102;17.208;2023-02-21T13:56:47;12.00;99.90
40696;DHT22;40425;51.102;17.208;2023-02-21T14:01:49;11.80;99.90
40696;DHT22;40425;51.102;17.208;2023-02-21T14:06:55;11.90;99.90
40696;DHT22;40425;51.102;17.208;2023-02-21T14:12:01;12.20;99.90
40696;DHT22;40425;51.102;17.208;2023-02-21T14:17:07;12.30;99.90
40696;DHT22;40425;51.102;17.208;2023-02-21T14:22:29;12.30;99.90
40696;DHT22;40425;51.102;17.208;2023-02-21T14:27:32;12.30;99.90
40696;DHT22;40425;51.102;17.208;2023-02-21T14:32:42;12.60;99.90
40696;DHT22;40425;51.102;17.208;2023-02-21T15:09:28;11.40;99.90
40696;DHT22;40425;51.102;17.208;2023-02-21T15:14:32;11.30;99.90
40696;DHT22;40425;51.102;17.208;2023-02-21T15:19:35;11.20;99.90
40696;DHT22;40425;51.102;17.208;2023-02-21T15:24:36;11.10;99.90
40696;DHT22;40425;51.102;17.208;2023-02-21T15:29:38;11.10;99.90
40696;DHT22;40425;51.102;17.208;2023-02-21T15:34:41;11.10;99.90
40696;DHT22;40425;51.102;17.208;2023-02-21T15:39:50;11.10;99.90
40696;DHT22;40425;51.102;17.208;2023-02-21T15:45:01;11.00;99.90
40696;DHT22;40425;51.102;17.208;2023-02-21T15:55:34;10.90;99.90
40696;DHT22;40425;51.102;17.208;2023-02-21T16:00:39;10.80;99.90
40696;DHT22;40425;51.102;17.208;2023-02-21T16:05:40;10.80;99.90
40696;DHT22;40425;51.102;17.208;2023-02-21T16:10:42;10.70;99.90
40696;DHT22;40425;51.102;17.208;2023-02-21T16:15:43;10.50;99.90
40696;DHT22;40425;51.102;17.208;2023-02-21T16:20:44;10.40;99.90
40696;DHT22;40425;51.102;17.208;2023-02-21T16:26:17;10.20;99.90
40696;DHT22;40425;51.102;17.208;2023-02-21T16:31:31;10.10;99.90
40696;DHT22;40425;51.102;17.208;2023-02-21T16:36:32;9.90;99.90
40696;DHT22;40425;51.102;17.208;2023-02-21T16:41:34;9.80;99.90
40696;DHT22;40425;51.102;17.208;2023-02-21T16:46:35;9.80;99.90
40696;DHT22;40425;51.102;17.208;2023-02-21T16:51:36;9.80;99.90
40696;DHT22;40425;51.102;17.208;2023-02-21T16:56:43;9.90;99.90
40696;DHT22;40425;51.102;17.208;2023-02-21T17:01:44;9.90;99.90
40696;DHT22;40425;51.102;17.208;2023-02-21T17:06:46;9.80;99.90
40696;DHT22;40425;51.102;17.208;2023-02-21T17:11:50;9.60;99.90
40696;DHT22;40425;51.102;17.208;2023-02-21T17:16:52;9.60;99.90
40696;DHT22;40425;51.102;17.208;2023-02-21T17:21:53;9.50;99.90
40696;DHT22;40425;51.102;17.208;2023-02-21T17:26:57;9.50;99.90
40696;DHT22;40425;51.102;17.208;2023-02-21T17:31:57;9.40;99.90
40696;DHT22;40425;51.102;17.208;2023-02-21T17:36:59;9.40;99.90
40696;DHT22;40425;51.102;17.208;2023-02-21T17:42:00;9.30;99.90
40696;DHT22;40425;51.102;17.208;2023-02-21T17:47:01;9.30;99.90
40696;DHT22;40425;51.102;17.208;2023-02-21T17:52:01;9.20;99.90
40696;DHT22;40425;51.102;17.208;2023-02-21T17:57:02;9.20;99.90
40696;DHT22;40425;51.102;17.208;2023-02-21T18:02:06;9.10;99.90
40696;DHT22;40425;51.102;17.208;2023-02-21T18:07:10;9.10;99.90
40696;DHT22;40425;51.102;17.208;2023-02-21T18:12:10;9.10;99.90
40696;DHT22;40425;51.102;17.208;2023-02-21T18:17:11;8.90;99.90
40696;DHT22;40425;51.102;17.208;2023-02-21T18:22:12;8.90;99.90
40696;DHT22;40425;51.102;17.208;2023-02-21T18:27:13;8.80;99.90
40696;DHT22;40425;51.102;17.208;2023-02-21T18:32:15;8.70;99.90
40696;DHT22;40425;51.102;17.208;2023-02-21T18:37:17;8.70;99.90
40696;DHT22;40425;51.102;17.208;2023-02-21T18:42:19;8.70;99.90
40696;DHT22;40425;51.102;17.208;2023-02-21T18:47:21;8.80;99.90
40696;DHT22;40425;51.102;17.208;2023-02-21T18:52:22;8.90;99.90
40696;DHT22;40425;51.102;17.208;2023-02-21T18:57:22;8.90;99.90
40696;DHT22;40425;51.102;17.208;2023-02-21T19:02:23;8.90;99.90
40696;DHT22;40425;51.102;17.208;2023-02-21T19:07:24;8.80;99.90
40696;DHT22;40425;51.102;17.208;2023-02-21T19:12:25;8.70;99.90
40696;DHT22;40425;51.102;17.208;2023-02-21T19:17:26;8.70;99.90
40696;DHT22;40425;51.102;17.208;2023-02-21T19:22:27;8.70;99.90
40696;DHT22;40425;51.102;17.208;2023-02-21T19:27:28;8.70;99.90
40696;DHT22;40425;51.102;17.208;2023-02-21T19:32:29;8.60;99.90
40696;DHT22;40425;51.102;17.208;2023-02-21T19:37:30;8.60;99.90
40696;DHT22;40425;51.102;17.208;2023-02-21T19:42:31;8.60;99.90
40696;DHT22;40425;51.102;17.208;2023-02-21T19:47:32;8.50;99.90
40696;DHT22;40425;51.102;17.208;2023-02-21T19:52:33;8.40;99.90
40696;DHT22;40425;51.102;17.208;2023-02-21T19:57:34;8.30;99.90
40696;DHT22;40425;51.102;17.208;2023-02-21T20:02:35;8.30;99.90
40696;DHT22;40425;51.102;17.208;2023-02-21T20:07:38;8.30;99.90
40696;DHT22;40425;51.102;17.208;2023-02-21T20:12:43;8.30;99.90
40696;DHT22;40425;51.102;17.208;2023-02-21T20:17:44;8.30;99.90
40696;DHT22;40425;51.102;17.208;2023-02-21T20:22:45;8.30;99.90
40696;DHT22;40425;51.102;17.208;2023-02-21T20:27:46;8.30;99.90
40696;DHT22;40425;51.102;17.208;2023-02-21T20:32:49;8.30;99.90
40696;DHT22;40425;51.102;17.208;2023-02-21T20:37:53;8.30;99.90
40696;DHT22;40425;51.102;17.208;2023-02-21T20:43:01;8.30;99.90
40696;DHT22;40425;51.102;17.208;2023-02-21T20:48:06;8.30;99.90
40696;DHT22;40425;51.102;17.208;2023-02-21T20:53:07;8.30;99.90
40696;DHT22;40425;51.102;17.208;2023-02-21T20:58:09;8.30;99.90
40696;DHT22;40425;51.102;17.208;2023-02-21T21:03:11;8.20;99.90
40696;DHT22;40425;51.102;17.208;2023-02-21T21:08:15;8.20;99.90
40696;DHT22;40425;51.102;17.208;2023-02-21T21:13:19;8.10;99.90
40696;DHT22;40425;51.102;17.208;2023-02-21T21:18:22;8.10;99.90
40696;DHT22;40425;51.102;17.208;2023-02-21T21:23:23;8.00;99.90
40696;DHT22;40425;51.102;17.208;2023-02-21T21:28:25;8.00;99.90
40696;DHT22;40425;51.102;17.208;2023-02-21T21:33:27;7.80;99.90
40696;DHT22;40425;51.102;17.208;2023-02-21T21:38:29;7.80;99.90
40696;DHT22;40425;51.102;17.208;2023-02-21T21:43:31;7.70;99.90
40696;DHT22;40425;51.102;17.208;2023-02-21T21:48:32;7.70;99.90
40696;DHT22;40425;51.102;17.208;2023-02-21T21:53:36;7.70;99.90
40696;DHT22;40425;51.102;17.208;2023-02-21T21:58:42;7.70;99.90
40696;DHT22;40425;51.102;17.208;2023-02-21T22:03:43;7.70;99.90
40696;DHT22;40425;51.102;17.208;2023-02-21T22:08:44;7.60;99.90
40696;DHT22;40425;51.102;17.208;2023-02-21T22:13:45;7.60;99.90
40696;DHT22;40425;51.102;17.208;2023-02-21T22:18:46;7.60;99.90
40696;DHT22;40425;51.102;17.208;2023-02-21T22:23:47;7.60;99.90
40696;DHT22;40425;51.102;17.208;2023-02-21T22:28:48;7.60;99.90
40696;DHT22;40425;51.102;17.208;2023-02-21T22:33:49;7.60;99.90
40696;DHT22;40425;51.102;17.208;2023-02-21T22:38:50;7.60;99.90
40696;DHT22;40425;51.102;17.208;2023-02-21T22:43:55;7.60;99.90
40696;DHT22;40425;51.102;17.208;2023-02-21T22:48:55;7.60;99.90
40696;DHT22;40425;51.102;17.208;2023-02-21T22:53:57;7.60;99.90
40696;DHT22;40425;51.102;17.208;2023-02-21T22:58:58;7.50;99.90
40696;DHT22;40425;51.102;17.208;2023-02-21T23:03:59;7.40;99.90
40696;DHT22;40425;51.102;17.208;2023-02-21T23:09:23;7.40;99.90
40696;DHT22;40425;51.102;17.208;2023-02-21T23:14:25;7.30;99.90
40696;DHT22;40425;51.102;17.208;2023-02-21T23:19:28;7.30;99.90
40696;DHT22;40425;51.102;17.208;2023-02-21T23:24:29;7.20;99.90
40696;DHT22;40425;51.102;17.208;2023-02-21T23:29:30;7.00;99.90
40696;DHT22;40425;51.102;17.208;2023-02-21T23:34:31;7.00;99.90
40696;DHT22;40425;51.102;17.208;2023-02-21T23:39:40;6.90;99.90
40696;DHT22;40425;51.102;17.208;2023-02-21T23:44:41;6.80;99.90
40696;DHT22;40425;51.102;17.208;2023-02-21T23:49:43;6.80;99.90
40696;DHT22;40425;51.102;17.208;2023-02-21T23:54:44;6.80;99.90
40696;DHT22;40425;51.102;17.208;2023-02-21T23:59:46;6.80;99.90
